Time;durP1;ratioP1;P1;durP2;ratioP2;P2;SDS_P1;SDS_P2;PMS_P1;PMS_P2;Temp;Humidity;BMP_temperature;BMP_pressure;BME280_temperature;BME280_humidity;BME280_pressure;Samples;Min_cycle;Max_cycle;Signal;HPM_P1;HPM_P2
2021/03/08 00:02:01;;;;;;;20.07;15.07;;;0.10;34.00;;;;;;5053234;28;20203;-71
2021/03/08 00:04:29;;;;;;;21.13;15.63;;;0.00;34.00;;;;;;5053291;28;20182;-71
2021/03/08 00:06:54;;;;;;;23.58;15.93;;;0.00;34.00;;;;;;5053181;28;20221;-71
2021/03/08 00:09:20;;;;;;;18.33;15.83;;;-0.10;33.90;;;;;;5051642;28;20178;-71
2021/03/08 00:11:45;;;;;;;19.00;15.30;;;-0.10;34.50;;;;;;5053091;28;20212;-71
2021/03/08 00:14:11;;;;;;;22.50;16.03;;;-0.10;34.30;;;;;;5053122;28;20166;-71
2021/03/08 00:16:36;;;;;;;18.50;15.70;;;-0.10;33.90;;;;;;5053125;28;20179;-71
2021/03/08 00:19:02;;;;;;;16.70;14.50;;;-0.10;33.90;;;;;;5052570;28;20174;-71
2021/03/08 00:21:28;;;;;;;18.07;12.97;;;-0.20;33.80;;;;;;5052935;28;20281;-71
2021/03/08 00:23:53;;;;;;;17.57;15.00;;;-0.20;33.80;;;;;;5052797;28;20409;-71
2021/03/08 00:26:19;;;;;;;17.20;15.27;;;-0.20;33.80;;;;;;5052864;28;20264;-71
2021/03/08 00:28:44;;;;;;;20.23;15.13;;;-0.20;33.80;;;;;;5052492;28;20178;-71
2021/03/08 00:31:10;;;;;;;19.00;16.40;;;-0.20;33.80;;;;;;5052748;28;20198;-73
2021/03/08 00:33:35;;;;;;;17.47;15.63;;;-0.30;33.70;;;;;;5051602;28;20595;-71
2021/03/08 00:36:01;;;;;;;18.00;14.30;;;-0.30;34.60;;;;;;5052669;28;20175;-71
2021/03/08 00:38:27;;;;;;;20.23;16.13;;;-0.30;34.40;;;;;;5052779;28;20186;-71
2021/03/08 00:40:52;;;;;;;16.83;15.03;;;-0.40;34.20;;;;;;5051894;28;20280;-71
2021/03/08 00:43:18;;;;;;;18.30;15.87;;;-0.40;34.60;;;;;;5052797;28;20203;-71
2021/03/08 00:45:43;;;;;;;16.50;13.20;;;-0.40;34.80;;;;;;5052543;28;20175;-71
2021/03/08 00:48:09;;;;;;;15.53;13.77;;;-0.40;34.50;;;;;;5052412;28;20174;-71
2021/03/08 00:50:35;;;;;;;17.27;15.33;;;-0.30;33.70;;;;;;5051962;28;20187;-70
2021/03/08 00:53:00;;;;;;;20.87;16.93;;;-0.40;33.60;;;;;;5052438;28;20268;-70
2021/03/08 00:55:26;;;;;;;24.07;15.93;;;-0.40;33.70;;;;;;5051360;28;20274;-71
2021/03/08 00:57:51;;;;;;;18.67;16.70;;;-0.40;33.80;;;;;;5050926;28;20269;-70
2021/03/08 01:00:22;;;;;;;18.97;16.90;;;-0.50;34.40;;;;;;5052346;28;20210;-71
2021/03/08 01:02:48;;;;;;;23.52;16.88;;;-0.50;34.70;;;;;;5053073;28;20646;-71
2021/03/08 01:05:15;;;;;;;18.43;14.13;;;-0.50;34.60;;;;;;5053370;28;20186;-71
2021/03/08 01:07:40;;;;;;;17.30;15.52;;;-0.50;34.90;;;;;;5051474;28;20469;-71
2021/03/08 01:10:12;;;;;;;16.90;15.07;;;-0.50;34.60;;;;;;5050628;28;20179;-70
2021/03/08 01:12:38;;;;;;;21.52;17.10;;;-0.60;34.80;;;;;;5051141;28;20202;-71
2021/03/08 01:15:05;;;;;;;17.52;15.27;;;-0.60;34.90;;;;;;5052090;28;20179;-70
2021/03/08 01:17:31;;;;;;;17.83;15.98;;;-0.50;35.10;;;;;;5050853;28;20175;-70
2021/03/08 01:19:59;;;;;;;17.27;15.53;;;-0.40;34.70;;;;;;5052001;28;20190;-70
2021/03/08 01:22:24;;;;;;;21.35;16.08;;;-0.40;34.30;;;;;;5052375;28;20202;-70
2021/03/08 01:24:50;;;;;;;17.40;14.73;;;-0.40;34.50;;;;;;5053138;28;20261;-71
2021/03/08 01:27:15;;;;;;;18.50;14.80;;;-0.50;34.40;;;;;;5052892;28;20634;-70
2021/03/08 01:29:41;;;;;;;18.17;15.70;;;-0.50;34.40;;;;;;5051750;28;20182;-70
2021/03/08 01:32:07;;;;;;;17.00;15.13;;;-0.50;34.40;;;;;;5050772;28;20194;-70
2021/03/08 01:34:32;;;;;;;21.80;15.53;;;-0.60;34.30;;;;;;5052370;28;20175;-72
2021/03/08 01:36:58;;;;;;;17.93;14.30;;;-0.60;34.20;;;;;;5051868;28;20413;-71
2021/03/08 01:39:23;;;;;;;15.73;14.23;;;-0.70;34.10;;;;;;5051089;28;20174;-71
2021/03/08 01:41:49;;;;;;;23.23;15.90;;;-0.70;34.10;;;;;;5049994;28;20305;-71
2021/03/08 01:44:14;;;;;;;17.37;14.20;;;-0.80;34.10;;;;;;5051642;28;20179;-71
2021/03/08 01:46:40;;;;;;;18.80;15.53;;;-0.80;34.70;;;;;;5051451;28;20256;-71
2021/03/08 01:49:06;;;;;;;19.23;15.63;;;-0.90;34.70;;;;;;5049739;28;20171;-71
2021/03/08 01:51:32;;;;;;;21.30;16.88;;;-1.00;34.80;;;;;;5051384;28;20190;-71
2021/03/08 01:53:58;;;;;;;16.03;14.57;;;-1.10;35.10;;;;;;5051563;28;20666;-71
2021/03/08 01:56:23;;;;;;;17.37;15.20;;;-1.10;35.50;;;;;;5051705;28;20178;-71
2021/03/08 01:58:49;;;;;;;18.40;16.53;;;-1.20;35.50;;;;;;5050826;28;20257;-72
2021/03/08 02:01:15;;;;;;;17.70;15.93;;;-1.10;36.20;;;;;;5049899;28;20476;-72
2021/03/08 02:03:40;;;;;;;17.07;15.27;;;-1.10;35.90;;;;;;5051311;28;20186;-72
2021/03/08 02:06:06;;;;;;;21.93;17.40;;;-1.10;35.90;;;;;;5051372;28;20852;-72
2021/03/08 02:08:32;;;;;;;18.15;15.38;;;-1.10;35.80;;;;;;5050522;28;20249;-72
2021/03/08 02:10:57;;;;;;;21.20;15.17;;;-1.20;36.10;;;;;;5050718;28;20209;-72
2021/03/08 02:13:37;;;;;;;18.00;16.30;;;-1.20;36.30;;;;;;5049692;28;20233;-72
2021/03/08 02:16:12;;;;;;;18.42;16.48;;;-1.20;35.80;;;;;;5051174;28;20198;-72
2021/03/08 02:19:02;;;;;;;21.75;15.45;;;-1.20;35.90;;;;;;5049766;28;20181;-72
2021/03/08 02:21:57;;;;;;;17.80;15.30;;;-1.20;35.80;;;;;;5051293;28;20281;-72
2021/03/08 02:24:26;;;;;;;16.80;14.48;;;-1.30;35.30;;;;;;5051265;28;20170;-72
2021/03/08 02:26:59;;;;;;;20.58;14.70;;;-1.30;35.60;;;;;;5050826;28;20210;-72
2021/03/08 02:29:53;;;;;;;17.77;14.30;;;-1.30;35.60;;;;;;5050746;28;20527;-72
2021/03/08 02:32:42;;;;;;;22.50;17.63;;;-1.30;36.20;;;;;;5050949;28;20197;-72
2021/03/08 02:35:18;;;;;;;18.38;15.52;;;-1.40;36.10;;;;;;5051235;28;20186;-72
2021/03/08 02:38:07;;;;;;;21.25;15.02;;;-1.50;36.30;;;;;;5050170;28;20296;-72
2021/03/08 02:40:43;;;;;;;19.50;15.50;;;-1.50;37.00;;;;;;5050686;28;20181;-72
2021/03/08 02:43:20;;;;;;;21.00;17.05;;;-1.50;37.00;;;;;;5034905;22;20235;-71
2021/03/08 02:45:49;;;;;;;19.80;15.65;;;-1.50;36.60;;;;;;5010955;28;20582;-72
2021/03/08 02:48:15;;;;;;;16.27;14.63;;;-1.50;36.90;;;;;;5010985;28;20187;-71
2021/03/08 02:50:42;;;;;;;16.45;14.13;;;-1.40;36.60;;;;;;5010278;28;20182;-72
2021/03/08 02:53:11;;;;;;;22.45;15.90;;;-1.40;36.30;;;;;;5010749;28;20196;-73
2021/03/08 02:55:42;;;;;;;17.17;15.48;;;-1.50;36.10;;;;;;5010747;28;20186;-71
2021/03/08 02:58:09;;;;;;;18.02;16.20;;;-1.60;36.40;;;;;;5010709;28;20180;-72
2021/03/08 03:00:37;;;;;;;20.10;15.93;;;-1.70;35.80;;;;;;5010136;28;20172;-71
2021/03/08 03:03:06;;;;;;;21.42;16.15;;;-1.70;36.90;;;;;;5010650;28;20196;-72
2021/03/08 03:05:34;;;;;;;17.30;15.52;;;-1.70;37.30;;;;;;4993487;28;20671;-72
2021/03/08 03:08:02;;;;;;;18.42;16.20;;;-1.70;37.60;;;;;;5010541;28;20211;-72
2021/03/08 03:10:31;;;;;;;23.60;15.90;;;-1.70;37.50;;;;;;4992667;28;20172;-73
2021/03/08 03:12:58;;;;;;;20.05;17.00;;;-1.70;37.60;;;;;;5010800;28;20191;-72
2021/03/08 03:15:24;;;;;;;21.90;17.30;;;-1.60;37.20;;;;;;5010510;28;20267;-72
2021/03/08 03:17:51;;;;;;;21.80;19.50;;;-1.70;37.00;;;;;;4993048;28;20274;-71
2021/03/08 03:20:19;;;;;;;18.75;16.20;;;-1.80;37.10;;;;;;5012522;28;20480;-73
2021/03/08 03:22:46;;;;;;;20.42;18.33;;;-1.80;37.50;;;;;;5014797;28;20323;-71
2021/03/08 03:25:16;;;;;;;24.33;17.15;;;-1.80;37.60;;;;;;5014323;28;20183;-72
2021/03/08 03:27:44;;;;;;;22.65;17.63;;;-1.80;37.60;;;;;;5014329;28;20203;-71
2021/03/08 03:30:11;;;;;;;21.73;16.30;;;-1.70;37.60;;;;;;5013679;28;20534;-70
2021/03/08 03:32:36;;;;;;;21.92;17.15;;;-1.70;37.60;;;;;;5012669;28;20498;-71
2021/03/08 03:35:04;;;;;;;22.70;18.30;;;-1.70;37.60;;;;;;5014136;28;20172;-71
2021/03/08 03:37:31;;;;;;;18.40;14.57;;;-1.70;37.60;;;;;;5014382;28;20406;-71
2021/03/08 03:39:56;;;;;;;20.38;16.65;;;-1.70;37.60;;;;;;5013472;28;20199;-72
2021/03/08 03:42:22;;;;;;;18.40;16.60;;;-1.70;37.60;;;;;;5013877;28;20215;-71
2021/03/08 03:44:50;;;;;;;19.77;15.70;;;-1.80;37.50;;;;;;5014360;28;20191;-71
2021/03/08 03:47:16;;;;;;;24.15;17.13;;;-1.80;37.60;;;;;;5013716;28;20206;-71
2021/03/08 03:49:42;;;;;;;18.83;14.80;;;-1.70;37.60;;;;;;5013106;28;20183;-71
2021/03/08 03:52:08;;;;;;;23.37;16.57;;;-1.70;37.20;;;;;;5013685;28;20619;-72
2021/03/08 03:54:34;;;;;;;19.20;17.25;;;-1.80;36.80;;;;;;5013638;28;20497;-71
2021/03/08 03:57:04;;;;;;;18.03;15.60;;;-1.90;37.00;;;;;;5013689;28;20180;-72
2021/03/08 03:59:36;;;;;;;19.38;17.40;;;-1.90;37.40;;;;;;5013151;28;20430;-73
2021/03/08 04:02:10;;;;;;;18.95;16.05;;;-2.00;37.40;;;;;;5014086;28;20218;-71
2021/03/08 04:04:47;;;;;;;21.92;16.98;;;-2.00;37.50;;;;;;5014055;28;20262;-72
2021/03/08 04:07:13;;;;;;;23.17;18.10;;;-2.00;37.50;;;;;;5013537;28;20752;-71
2021/03/08 04:09:43;;;;;;;21.23;16.55;;;-2.00;37.40;;;;;;5013115;28;20199;-73
2021/03/08 04:12:10;;;;;;;22.88;17.48;;;-2.00;37.70;;;;;;5013448;28;20538;-73
2021/03/08 04:14:40;;;;;;;16.15;14.52;;;-2.00;37.60;;;;;;5013381;28;20256;-72
2021/03/08 04:17:07;;;;;;;16.92;14.07;;;-2.00;37.40;;;;;;4995843;28;20179;-72
2021/03/08 04:19:34;;;;;;;19.63;16.00;;;-1.90;37.00;;;;;;5012647;28;20179;-72
2021/03/08 04:22:03;;;;;;;18.23;16.33;;;-2.00;36.30;;;;;;5013146;28;20215;-73
2021/03/08 04:24:35;;;;;;;20.00;16.83;;;-2.10;36.70;;;;;;4995479;28;20263;-72
2021/03/08 04:27:08;;;;;;;21.45;16.42;;;-2.30;36.60;;;;;;5012896;28;20575;-73
2021/03/08 04:29:37;;;;;;;18.27;16.40;;;-2.30;37.10;;;;;;5012502;28;20263;-73
2021/03/08 04:32:05;;;;;;;24.85;15.10;;;-2.30;37.60;;;;;;5012112;28;20198;-72
2021/03/08 04:34:32;;;;;;;20.65;17.60;;;-2.40;37.60;;;;;;4995354;28;20234;-72
2021/03/08 04:37:00;;;;;;;16.90;15.23;;;-2.40;37.40;;;;;;4995233;28;20200;-72
2021/03/08 04:39:32;;;;;;;17.67;15.82;;;-2.40;38.00;;;;;;5012324;28;20542;-73
2021/03/08 04:41:59;;;;;;;17.77;15.98;;;-2.40;37.70;;;;;;5011225;28;20212;-72
2021/03/08 04:44:25;;;;;;;22.45;17.75;;;-2.40;37.50;;;;;;5012904;28;20669;-72
2021/03/08 04:46:51;;;;;;;19.08;16.77;;;-2.50;37.20;;;;;;5012853;28;20580;-73
2021/03/08 04:49:18;;;;;;;18.27;16.30;;;-2.60;37.50;;;;;;5012611;28;20268;-72
2021/03/08 04:51:47;;;;;;;20.55;17.13;;;-2.60;37.70;;;;;;5012560;28;20203;-72
2021/03/08 04:54:14;;;;;;;22.83;17.02;;;-2.60;37.60;;;;;;5012447;28;20211;-72
2021/03/08 04:56:41;;;;;;;22.35;16.95;;;-2.70;37.90;;;;;;5012522;28;20263;-71
2021/03/08 04:59:07;;;;;;;23.23;18.00;;;-2.70;37.90;;;;;;5011835;28;20262;-72
2021/03/08 05:01:34;;;;;;;22.20;17.70;;;-2.70;38.30;;;;;;5012390;28;20230;-72
2021/03/08 05:04:06;;;;;;;17.67;15.93;;;-2.70;38.40;;;;;;5012193;28;20707;-72
2021/03/08 05:06:33;;;;;;;27.80;19.88;;;-2.70;38.40;;;;;;5012224;28;20261;-72
2021/03/08 05:09:01;;;;;;;24.42;17.88;;;-2.70;38.10;;;;;;4994014;28;20216;-72
2021/03/08 05:11:28;;;;;;;21.65;18.83;;;-2.70;38.20;;;;;;5012412;28;20553;-72
2021/03/08 05:13:55;;;;;;;25.15;16.52;;;-2.70;38.30;;;;;;5012314;28;20164;-72
2021/03/08 05:16:21;;;;;;;22.15;16.35;;;-2.70;38.60;;;;;;5012292;28;20172;-73
2021/03/08 05:18:48;;;;;;;22.83;15.20;;;-2.70;38.40;;;;;;5011924;28;20187;-74
2021/03/08 05:21:14;;;;;;;20.63;18.35;;;-2.70;38.40;;;;;;4994563;28;20730;-71
2021/03/08 05:23:42;;;;;;;22.15;17.95;;;-2.70;38.30;;;;;;4994517;28;20197;-72
2021/03/08 05:26:08;;;;;;;21.25;16.42;;;-2.70;38.30;;;;;;5011987;28;20238;-72
2021/03/08 05:28:34;;;;;;;22.85;18.65;;;-2.70;38.70;;;;;;5012025;28;20179;-73
2021/03/08 05:31:01;;;;;;;21.80;18.77;;;-2.70;38.70;;;;;;5011590;28;20207;-71
2021/03/08 05:33:32;;;;;;;20.33;17.27;;;-2.70;38.70;;;;;;5011975;28;20351;-71
2021/03/08 05:35:59;;;;;;;26.50;16.60;;;-2.70;38.70;;;;;;5011933;28;20180;-72
2021/03/08 05:38:29;;;;;;;19.02;15.05;;;-2.60;38.60;;;;;;5011734;28;20191;-72
2021/03/08 05:41:23;;;;;;;23.45;17.27;;;-2.60;37.90;;;;;;5011267;28;20206;-71
2021/03/08 05:43:51;;;;;;;23.83;18.83;;;-2.60;37.60;;;;;;5011354;28;20209;-71
2021/03/08 05:46:24;;;;;;;21.90;19.25;;;-2.80;37.80;;;;;;5011770;28;20209;-71
2021/03/08 05:49:14;;;;;;;29.48;20.42;;;-2.90;38.10;;;;;;5011662;28;20214;-71
2021/03/08 05:52:13;;;;;;;22.55;18.52;;;-3.00;38.80;;;;;;5011571;28;20190;-73
2021/03/08 05:55:04;;;;;;;27.95;19.80;;;-3.00;39.00;;;;;;5006490;28;20657;-71
2021/03/08 05:57:35;;;;;;;18.48;16.48;;;-3.00;39.30;;;;;;4999123;28;20195;-72
2021/03/08 06:00:09;;;;;;;20.38;17.02;;;-3.00;39.20;;;;;;4991251;28;20179;-72
2021/03/08 06:02:34;;;;;;;21.52;18.10;;;-2.90;40.00;;;;;;4991536;28;20199;-72
2021/03/08 06:05:09;;;;;;;19.40;17.33;;;-2.90;39.80;;;;;;4991640;28;20199;-72
2021/03/08 06:07:58;;;;;;;23.65;18.40;;;-2.80;39.80;;;;;;4991397;28;20812;-73
2021/03/08 06:10:32;;;;;;;36.30;19.70;;;-2.70;39.40;;;;;;4975738;28;20188;-72
2021/03/08 06:13:00;;;;;;;28.02;18.48;;;-2.70;39.30;;;;;;4991312;28;20196;-72
2021/03/08 06:15:28;;;;;;;27.73;19.38;;;-2.70;39.30;;;;;;4983715;28;20595;-72
2021/03/08 06:17:55;;;;;;;27.00;19.55;;;-2.60;39.40;;;;;;4991479;28;20173;-72
2021/03/08 06:20:21;;;;;;;23.45;18.10;;;-2.60;38.80;;;;;;4973377;28;20180;-71
2021/03/08 06:22:47;;;;;;;25.10;17.90;;;-2.50;38.20;;;;;;4991151;28;20279;-71
2021/03/08 06:25:14;;;;;;;22.40;17.02;;;-2.50;37.90;;;;;;4974132;28;20184;-73
2021/03/08 06:27:46;;;;;;;26.15;19.52;;;-2.50;37.90;;;;;;5005122;28;20265;-73
2021/03/08 06:30:13;;;;;;;20.80;18.60;;;-2.40;38.60;;;;;;5010521;28;20657;-72
2021/03/08 06:32:38;;;;;;;27.45;18.60;;;-2.30;40.30;;;;;;5010761;28;20207;-73
2021/03/08 06:35:05;;;;;;;22.10;19.73;;;-2.00;40.40;;;;;;5010853;28;20187;-73
2021/03/08 06:37:32;;;;;;;24.05;17.60;;;-1.60;40.10;;;;;;5010834;28;20172;-73
2021/03/08 06:39:58;;;;;;;19.45;16.70;;;-1.20;36.90;;;;;;5010138;28;20180;-72
2021/03/08 06:42:24;;;;;;;22.10;18.83;;;-0.90;33.20;;;;;;5011027;28;20222;-73
2021/03/08 06:44:50;;;;;;;19.37;16.17;;;-0.60;30.80;;;;;;5010841;28;20172;-72
2021/03/08 06:47:17;;;;;;;18.83;15.77;;;-0.30;29.00;;;;;;5010993;28;20242;-73
2021/03/08 06:49:43;;;;;;;19.50;15.63;;;0.00;28.50;;;;;;5010208;28;20180;-73
2021/03/08 06:52:09;;;;;;;18.50;16.57;;;0.50;27.30;;;;;;4993015;28;20196;-72
2021/03/08 06:54:39;;;;;;;20.67;15.67;;;1.20;25.90;;;;;;5012206;28;20176;-73
2021/03/08 06:57:28;;;;;;;19.05;17.08;;;1.40;23.90;;;;;;5014699;28;20206;-73
2021/03/08 07:00:01;;;;;;;17.67;15.80;;;1.60;23.80;;;;;;5014241;28;20726;-73
2021/03/08 07:02:36;;;;;;;18.73;16.23;;;1.70;22.90;;;;;;5014518;28;20210;-73
2021/03/08 07:05:02;;;;;;;18.05;16.25;;;1.50;23.10;;;;;;5014681;28;20254;-73
2021/03/08 07:07:28;;;;;;;19.15;17.25;;;1.10;24.00;;;;;;5013736;28;20252;-73
2021/03/08 07:09:54;;;;;;;19.27;15.80;;;0.90;25.10;;;;;;5014033;28;20657;-72
2021/03/08 07:12:21;;;;;;;21.03;18.60;;;0.60;26.10;;;;;;5006895;28;20211;-72
2021/03/08 07:15:04;;;;;;;22.30;17.75;;;0.40;27.30;;;;;;4994917;28;20184;-73
2021/03/08 07:17:34;;;;;;;17.20;15.40;;;0.20;28.20;;;;;;4994939;28;20191;-73
2021/03/08 07:20:03;;;;;;;23.08;17.75;;;0.10;29.30;;;;;;4994477;28;20181;-72
2021/03/08 07:22:51;;;;;;;28.13;19.63;;;0.10;29.90;;;;;;4994659;28;20570;-73
2021/03/08 07:25:18;;;;;;;23.27;18.00;;;0.10;29.70;;;;;;5008286;28;20199;-73
2021/03/08 07:27:47;;;;;;;30.80;18.75;;;0.10;29.40;;;;;;4996786;28;20276;-73
2021/03/08 07:30:14;;;;;;;29.35;19.85;;;0.20;29.50;;;;;;5014114;28;20183;-72
2021/03/08 07:32:49;;;;;;;23.48;17.88;;;0.20;29.30;;;;;;5014655;28;20617;-72
2021/03/08 07:35:15;;;;;;;23.17;17.05;;;;;;;;;;5014969;28;20171;-72
2021/03/08 07:37:47;;;;;;;21.73;19.30;;;0.40;54.30;;;;;;5013992;28;20728;-72
2021/03/08 07:40:23;;;;;;;23.80;18.30;;;0.40;44.40;;;;;;5013690;28;20415;-72
2021/03/08 07:42:49;;;;;;;23.77;18.63;;;0.50;28.80;;;;;;5014343;28;20207;-72
2021/03/08 07:45:15;;;;;;;20.53;16.40;;;0.60;29.60;;;;;;4996417;28;20275;-72
2021/03/08 07:47:41;;;;;;;19.55;16.83;;;0.70;29.40;;;;;;5014267;28;20545;-72
2021/03/08 07:50:26;;;;;;;20.80;17.47;;;0.90;54.00;;;;;;5013687;28;20290;-72
2021/03/08 07:52:54;;;;;;;26.83;22.00;;;1.10;51.80;;;;;;5013945;28;20438;-72
2021/03/08 07:55:20;;;;;;;22.63;17.98;;;1.10;28.80;;;;;;5014263;28;20186;-72
2021/03/08 07:57:46;;;;;;;23.20;16.97;;;1.30;27.90;;;;;;5014096;28;20246;-72
2021/03/08 08:00:12;;;;;;;20.35;18.15;;;1.50;28.10;;;;;;4996020;28;20192;-72
2021/03/08 08:02:38;;;;;;;20.17;18.13;;;1.70;53.00;;;;;;5013384;28;20208;-72
2021/03/08 08:05:04;;;;;;;18.37;16.67;;;1.70;29.00;;;;;;5014025;28;20555;-72
2021/03/08 08:07:31;;;;;;;21.25;18.63;;;1.70;29.40;;;;;;5012853;28;20220;-71
2021/03/08 08:10:03;;;;;;;19.67;17.58;;;1.70;27.30;;;;;;5013388;28;20188;-72
2021/03/08 08:12:33;;;;;;;24.13;19.10;;;1.90;26.40;;;;;;5013894;28;20200;-72
2021/03/08 08:15:01;;;;;;;19.70;17.73;;;2.20;25.70;;;;;;5013951;28;20561;-71
2021/03/08 08:17:29;;;;;;;26.35;20.10;;;2.50;25.00;;;;;;5013657;28;20264;-72
2021/03/08 08:19:57;;;;;;;25.13;21.08;;;2.60;24.50;;;;;;5004072;28;20747;-71
2021/03/08 08:22:24;;;;;;;28.98;19.70;;;2.70;24.60;;;;;;4994223;28;20538;-72
2021/03/08 08:24:54;;;;;;;20.50;18.33;;;2.90;24.60;;;;;;4996473;28;20180;-72
2021/03/08 08:27:21;;;;;;;23.52;20.92;;;;;;;;;;4995694;28;20250;-72
2021/03/08 08:29:49;;;;;;;21.95;19.65;;;3.20;30.70;;;;;;4995205;28;20191;-72
2021/03/08 08:32:15;;;;;;;23.98;19.88;;;3.20;26.20;;;;;;4995900;28;20206;-71
2021/03/08 08:34:50;;;;;;;21.90;19.90;;;3.30;32.00;;;;;;4996663;28;20176;-71
2021/03/08 08:37:26;;;;;;;21.67;19.75;;;;;;;;;;4996193;28;20230;-71
2021/03/08 08:39:52;;;;;;;21.88;16.88;;;;;;;;;;4995634;28;20259;-72
2021/03/08 08:42:21;;;;;;;23.67;18.50;;;;;;;;;;5025465;23;20286;-71
2021/03/08 08:44:48;;;;;;;21.90;18.17;;;;;;;;;;5020799;28;20417;-71
2021/03/08 08:47:17;;;;;;;22.48;20.38;;;3.40;33.40;;;;;;5018993;28;20232;-73
2021/03/08 08:49:47;;;;;;;22.60;18.30;;;3.40;22.30;;;;;;5016809;28;20183;-71
2021/03/08 08:52:13;;;;;;;23.13;19.52;;;3.30;22.30;;;;;;5018868;28;20289;-73
2021/03/08 08:54:39;;;;;;;21.58;19.10;;;3.40;23.60;;;;;;5018481;28;20176;-73
2021/03/08 08:57:04;;;;;;;22.33;20.30;;;;;;;;;;5019998;28;20176;-71
2021/03/08 08:59:34;;;;;;;20.70;18.70;;;;;;;;;;5020998;28;20184;-73
2021/03/08 09:02:32;;;;;;;23.35;20.90;;;;;;;;;;5018687;28;20450;-71
2021/03/08 09:04:58;;;;;;;20.38;18.55;;;;;;;;;;5017908;28;20187;-70
2021/03/08 09:07:24;;;;;;;24.73;18.63;;;;;;;;;;5017791;28;20299;-71
2021/03/08 09:09:50;;;;;;;21.87;19.77;;;;;;;;;;5018580;28;20172;-70
2021/03/08 09:12:28;;;;;;;20.50;17.93;;;;;;;;;;5021803;28;20459;-74
2021/03/08 09:14:56;;;;;;;19.48;17.85;;;4.10;64.20;;;;;;5020586;28;20422;-71
2021/03/08 09:17:32;;;;;;;17.73;15.90;;;4.30;27.90;;;;;;5009768;28;20244;-73
2021/03/08 09:19:58;;;;;;;20.90;18.75;;;4.20;24.40;;;;;;5009263;28;20180;-73
2021/03/08 09:22:26;;;;;;;20.87;18.87;;;4.00;22.10;;;;;;4995103;28;20203;-72
2021/03/08 09:24:54;;;;;;;23.27;17.77;;;4.00;21.80;;;;;;5008172;28;20181;-72
2021/03/08 09:27:34;;;;;;;23.80;21.40;;;3.80;21.70;;;;;;5007733;28;20213;-72
2021/03/08 09:30:20;;;;;;;20.95;18.95;;;;;;;;;;5014480;28;20191;-71
2021/03/08 09:32:48;;;;;;;29.02;19.50;;;3.90;51.10;;;;;;5033782;28;20195;-71
2021/03/08 09:35:15;;;;;;;23.48;20.50;;;3.90;21.80;;;;;;5047997;28;20164;-72
2021/03/08 09:37:45;;;;;;;25.35;20.15;;;3.90;21.30;;;;;;5040139;28;20179;-71
2021/03/08 09:40:14;;;;;;;21.80;19.63;;;4.00;24.50;;;;;;5023818;28;20183;-71
2021/03/08 09:42:40;;;;;;;21.67;18.67;;;3.90;21.30;;;;;;5025838;28;20227;-71
2021/03/08 09:45:20;;;;;;;22.67;19.73;;;4.00;21.40;;;;;;5030499;28;20240;-71
2021/03/08 09:47:47;;;;;;;22.73;20.45;;;;;;;;;;5032033;28;20257;-72
2021/03/08 09:50:17;;;;;;;20.65;18.77;;;4.10;61.10;;;;;;5038505;28;20186;-71
2021/03/08 09:52:45;;;;;;;21.92;19.83;;;4.10;36.50;;;;;;5027676;28;20207;-73
2021/03/08 09:55:15;;;;;;;23.50;20.63;;;;;;;;;;5022018;28;20175;-72
2021/03/08 09:57:42;;;;;;;22.38;20.38;;;;;;;;;;5019966;28;20184;-71
2021/03/08 10:00:08;;;;;;;25.70;22.00;;;;;;;;;;5019972;28;20253;-73
2021/03/08 10:02:34;;;;;;;21.45;19.40;;;4.50;21.50;;;;;;5021021;28;20210;-73
2021/03/08 10:05:00;;;;;;;20.67;18.70;;;4.60;22.40;;;;;;5019069;28;20183;-72
2021/03/08 10:07:26;;;;;;;19.98;17.70;;;4.60;23.30;;;;;;5016031;28;20200;-73
2021/03/08 10:10:15;;;;;;;20.80;18.70;;;4.60;24.40;;;;;;5014309;28;20176;-72
2021/03/08 10:12:41;;;;;;;19.38;17.48;;;4.60;22.50;;;;;;5017297;28;20196;-72
2021/03/08 10:15:09;;;;;;;19.65;18.02;;;4.80;20.00;;;;;;5000318;28;20642;-72
2021/03/08 10:17:50;;;;;;;22.33;20.15;;;4.90;19.00;;;;;;4999669;28;20212;-70
2021/03/08 10:20:16;;;;;;;18.08;16.48;;;4.80;18.90;;;;;;5031035;28;20179;-70
2021/03/08 10:22:42;;;;;;;21.70;17.02;;;;;;;;;;5020875;28;20219;-72
2021/03/08 10:25:25;;;;;;;22.83;18.58;;;;;;;;;;5011646;28;20579;-71
2021/03/08 10:27:55;;;;;;;17.17;15.68;;;;;;;;;;5011488;28;20278;-71
2021/03/08 10:30:22;;;;;;;21.92;19.73;;;;;;;;;;5010084;28;20237;-72
2021/03/08 10:32:48;;;;;;;17.58;15.90;;;;;;;;;;5012018;28;20263;-74
2021/03/08 10:35:14;;;;;;;20.67;18.60;;;;;;;;;;5010343;28;20730;-72
2021/03/08 10:37:40;;;;;;;19.50;17.65;;;;;;;;;;5010291;28;20720;-71
2021/03/08 10:40:08;;;;;;;24.23;18.50;;;;;;;;;;5010162;28;20188;-72
2021/03/08 10:42:35;;;;;;;18.20;16.55;;;;;;;;;;5012047;28;20581;-72
2021/03/08 10:45:03;;;;;;;16.20;14.90;;;;;;;;;;5019688;28;20191;-71
2021/03/08 10:47:28;;;;;;;20.10;18.27;;;5.00;58.70;;;;;;5015490;28;20218;-74
2021/03/08 10:49:54;;;;;;;18.87;16.93;;;5.10;19.20;;;;;;5015595;28;20176;-71
2021/03/08 10:52:21;;;;;;;18.73;16.83;;;5.20;19.10;;;;;;5011460;28;20192;-72
2021/03/08 10:54:47;;;;;;;16.67;15.25;;;5.30;17.80;;;;;;5010150;28;21023;-73
2021/03/08 10:57:13;;;;;;;20.07;18.30;;;5.30;18.10;;;;;;5010938;28;20246;-72
2021/03/08 10:59:59;;;;;;;17.83;16.15;;;5.50;17.60;;;;;;5006877;28;20474;-72
2021/03/08 11:02:24;;;;;;;18.05;16.40;;;5.60;16.30;;;;;;4993651;28;20242;-71
2021/03/08 11:05:10;;;;;;;18.10;16.23;;;5.70;16.30;;;;;;5010050;28;20187;-70
2021/03/08 11:07:36;;;;;;;14.15;12.98;;;5.70;16.20;;;;;;4991370;28;20212;-71
2021/03/08 11:10:02;;;;;;;23.60;15.10;;;5.70;14.30;;;;;;5010579;28;20187;-73
2021/03/08 11:12:28;;;;;;;15.18;13.77;;;5.60;14.50;;;;;;5008854;28;20204;-72
2021/03/08 11:14:56;;;;;;;13.30;12.17;;;5.60;14.20;;;;;;5003163;28;20194;-71
2021/03/08 11:17:40;;;;;;;15.65;14.27;;;5.80;13.60;;;;;;5011980;28;20216;-72
2021/03/08 11:20:15;;;;;;;14.80;13.68;;;5.90;13.10;;;;;;5010304;28;20264;-72
2021/03/08 11:23:02;;;;;;;15.18;13.90;;;5.80;17.80;;;;;;5010543;28;20258;-71
2021/03/08 11:25:31;;;;;;;14.10;13.00;;;5.70;12.60;;;;;;4993676;28;20549;-72
2021/03/08 11:27:57;;;;;;;17.15;13.80;;;5.70;12.10;;;;;;5003980;28;20290;-71
2021/03/08 11:30:27;;;;;;;14.25;13.15;;;5.70;12.10;;;;;;5012769;28;20227;-71
2021/03/08 11:32:55;;;;;;;13.88;12.60;;;5.80;12.10;;;;;;5006351;28;20196;-71
2021/03/08 11:35:23;;;;;;;15.55;14.45;;;;;;;;;;4999224;28;20181;-70
2021/03/08 11:37:51;;;;;;;17.73;13.95;;;5.70;11.60;;;;;;5004661;28;20173;-72
2021/03/08 11:40:20;;;;;;;15.18;13.93;;;5.80;12.10;;;;;;5006823;28;20184;-72
2021/03/08 11:42:49;;;;;;;20.30;16.45;;;6.00;12.30;;;;;;5018259;28;20222;-72
2021/03/08 11:45:15;;;;;;;15.75;14.55;;;6.30;12.40;;;;;;5017739;28;20188;-72
2021/03/08 11:47:41;;;;;;;15.50;14.10;;;6.50;12.00;;;;;;5017436;28;20199;-72
2021/03/08 11:50:09;;;;;;;17.70;16.13;;;6.50;11.70;;;;;;5015092;28;20182;-71
2021/03/08 11:52:35;;;;;;;16.73;15.38;;;6.40;12.30;;;;;;5017150;28;20680;-71
2021/03/08 11:55:01;;;;;;;17.85;16.38;;;;;;;;;;5017554;28;20183;-72
2021/03/08 11:57:28;;;;;;;16.20;15.00;;;6.40;11.70;;;;;;5017131;28;20235;-72
2021/03/08 11:59:54;;;;;;;17.13;15.73;;;6.40;11.60;;;;;;5016835;28;20436;-72
2021/03/08 12:02:20;;;;;;;16.75;15.35;;;6.40;14.10;;;;;;5017208;28;20215;-73
2021/03/08 12:04:45;;;;;;;17.93;16.27;;;6.60;10.60;;;;;;5016860;28;20637;-70
2021/03/08 12:07:11;;;;;;;15.10;13.80;;;6.50;11.30;;;;;;5016457;28;20658;-70
2021/03/08 12:09:36;;;;;;;16.53;15.33;;;6.50;11.80;;;;;;5007659;28;20189;-70
2021/03/08 12:12:02;;;;;;;16.33;14.93;;;6.60;11.60;;;;;;5004030;28;20194;-70
2021/03/08 12:14:28;;;;;;;16.70;15.17;;;6.60;11.50;;;;;;5015390;28;20588;-70
2021/03/08 12:16:54;;;;;;;15.55;14.27;;;6.60;11.20;;;;;;5016637;28;20421;-70
2021/03/08 12:19:19;;;;;;;16.47;14.83;;;6.70;11.30;;;;;;5014269;28;20226;-70
2021/03/08 12:21:46;;;;;;;16.17;14.93;;;6.70;11.80;;;;;;5016922;28;20172;-70
2021/03/08 12:24:12;;;;;;;18.75;16.80;;;6.90;11.90;;;;;;5016947;28;20173;-70
2021/03/08 12:26:37;;;;;;;18.77;17.33;;;7.00;11.40;;;;;;5015925;28;20308;-70
2021/03/08 12:29:03;;;;;;;17.93;16.57;;;7.10;11.10;;;;;;5015729;28;20519;-71
2021/03/08 12:31:29;;;;;;;17.17;15.30;;;7.10;10.70;;;;;;5016090;28;20176;-70
2021/03/08 12:33:55;;;;;;;15.95;14.73;;;6.90;11.10;;;;;;5015506;28;20200;-71
2021/03/08 12:36:20;;;;;;;16.53;15.20;;;6.80;11.40;;;;;;5016386;28;20187;-70
2021/03/08 12:38:46;;;;;;;16.17;14.83;;;6.80;11.50;;;;;;5014119;28;20266;-69
2021/03/08 12:41:12;;;;;;;17.70;16.50;;;6.80;11.50;;;;;;5014569;28;20192;-70
2021/03/08 12:43:38;;;;;;;20.50;14.70;;;6.80;11.30;;;;;;5015449;28;20217;-71
2021/03/08 12:46:03;;;;;;;16.40;15.20;;;6.70;11.50;;;;;;5015482;28;20677;-71
2021/03/08 12:48:29;;;;;;;19.03;17.40;;;6.80;11.50;;;;;;5015564;28;20188;-71
2021/03/08 12:50:54;;;;;;;16.10;14.90;;;7.00;10.90;;;;;;5015199;28;20180;-71